createdAt,value
2022-09-01T00:00:15.086Z,49.53
2022-09-01T00:02:44.110Z,45.47
2022-09-01T00:05:12.831Z,52.05
2022-09-01T00:07:42.146Z,50.22
2022-09-01T00:10:11.030Z,47.40
2022-09-01T00:12:39.334Z,44.85
2022-09-01T00:15:09.387Z,44.92
2022-09-01T00:17:37.546Z,44.85
2022-09-01T00:20:06.001Z,57.72
2022-09-01T00:22:34.453Z,49.28
2022-09-01T00:25:04.662Z,51.45
2022-09-01T00:27:32.621Z,49.47
2022-09-01T00:30:01.218Z,56.20
2022-09-01T00:32:29.213Z,54.85
2022-09-01T00:34:57.731Z,54.15
2022-09-01T00:37:25.627Z,54.00
2022-09-01T00:39:53.539Z,55.85
2022-09-01T00:42:22.768Z,55.60
2022-09-01T00:44:50.898Z,56.47
2022-09-01T00:47:19.243Z,50.40
2022-09-01T00:49:50.284Z,51.80
2022-09-01T00:52:22.917Z,52.55
2022-09-01T00:54:55.524Z,47.95
2022-09-01T00:57:24.962Z,47.58
2022-09-01T00:59:57.386Z,52.92
2022-09-01T01:02:26.429Z,46.40
2022-09-01T01:05:00.477Z,46.47
2022-09-01T01:07:29.544Z,46.08
2022-09-01T01:09:57.810Z,39.00
2022-09-01T01:12:30.765Z,46.25
2022-09-01T01:14:58.652Z,42.92
2022-09-01T01:17:26.910Z,40.33
2022-09-01T01:20:14.580Z,44.35
2022-09-01T01:23:06.240Z,50.03
2022-09-01T01:25:39.187Z,39.80
2022-09-01T01:28:10.365Z,44.50
2022-09-01T01:30:41.793Z,38.42
2022-09-01T01:33:10.454Z,45.60
2022-09-01T01:35:39.959Z,46.08
2022-09-01T01:38:08.684Z,45.40
2022-09-01T01:40:39.149Z,57.88
2022-09-01T01:43:07.338Z,55.08
2022-09-01T01:45:36.145Z,51.10
2022-09-01T01:48:10.687Z,48.80
2022-09-01T01:50:38.901Z,46.85
2022-09-01T01:53:11.076Z,49.53
2022-09-01T01:55:41.753Z,46.33
2022-09-01T01:58:12.026Z,49.22
2022-09-01T02:00:44.621Z,45.90
2022-09-01T02:03:17.235Z,48.97
2022-09-01T02:05:46.016Z,45.67
2022-09-01T02:08:15.570Z,48.58
2022-09-01T02:10:46.837Z,54.20
2022-09-01T02:13:17.654Z,45.90
2022-09-01T02:15:48.831Z,47.35
2022-09-01T02:18:20.230Z,48.40
2022-09-01T02:20:50.366Z,44.67
2022-09-01T02:23:23.367Z,63.40
2022-09-01T02:26:15.163Z,46.33
2022-09-01T02:28:44.121Z,50.08
2022-09-01T02:31:13.143Z,45.88
2022-09-01T02:33:45.516Z,44.63
2022-09-01T02:36:16.176Z,42.33
2022-09-01T02:38:46.676Z,47.45
2022-09-01T02:41:24.980Z,46.78
2022-09-01T02:43:54.078Z,46.17
2022-09-01T02:46:24.393Z,46.78
2022-09-01T02:48:54.595Z,40.35
2022-09-01T02:51:25.328Z,46.83
2022-09-01T02:53:53.421Z,46.05
2022-09-01T02:56:25.925Z,46.45
2022-09-01T02:58:54.618Z,44.80
2022-09-01T03:01:25.646Z,43.15
2022-09-01T03:03:56.122Z,41.33
2022-09-01T03:06:24.848Z,46.17
2022-09-01T03:08:54.207Z,44.25
2022-09-01T03:11:24.620Z,40.15
2022-09-01T03:13:53.327Z,42.75
2022-09-01T03:16:22.410Z,45.15
2022-09-01T03:18:50.607Z,47.00
2022-09-01T03:21:19.110Z,43.42
2022-09-01T03:23:48.577Z,51.13
2022-09-01T03:26:18.828Z,45.80
2022-09-01T03:28:48.710Z,41.50
2022-09-01T03:31:18.237Z,41.03
2022-09-01T03:33:46.571Z,43.78
2022-09-01T03:36:19.352Z,41.15
2022-09-01T03:38:49.249Z,44.17
2022-09-01T03:41:19.007Z,42.88
2022-09-01T03:43:48.696Z,43.40
2022-09-01T03:46:21.628Z,36.40
2022-09-01T03:48:51.642Z,41.08
2022-09-01T03:51:22.879Z,41.65
2022-09-01T03:53:54.276Z,42.20
2022-09-01T03:56:22.431Z,44.13
2022-09-01T03:58:52.073Z,41.08
2022-09-01T04:01:20.542Z,39.40
2022-09-01T04:03:48.978Z,50.17
2022-09-01T04:06:23.924Z,48.92
2022-09-01T04:08:56.787Z,36.53
2022-09-01T04:11:25.251Z,40.67
2022-09-01T04:13:54.482Z,40.67
2022-09-01T04:16:42.050Z,37.33
2022-09-01T04:19:20.137Z,43.40
2022-09-01T04:21:50.348Z,43.17
2022-09-01T04:24:19.319Z,39.28
2022-09-01T04:26:49.676Z,45.95
2022-09-01T04:29:27.211Z,43.60
2022-09-01T04:31:55.875Z,44.90
2022-09-01T04:34:26.214Z,44.40
2022-09-01T04:36:54.462Z,42.63
2022-09-01T04:39:23.310Z,49.38
2022-09-01T04:41:51.257Z,46.55
2022-09-01T04:44:20.585Z,45.55
2022-09-01T04:46:50.817Z,46.75
2022-09-01T04:49:22.303Z,41.70
2022-09-01T04:51:53.886Z,50.22
2022-09-01T04:54:23.485Z,45.47
2022-09-01T04:56:52.900Z,47.05
2022-09-01T04:59:24.517Z,46.38
2022-09-01T05:01:54.848Z,45.50
2022-09-01T05:04:25.073Z,38.17
2022-09-01T05:06:55.961Z,43.20
2022-09-01T05:09:25.192Z,45.17
2022-09-01T05:11:53.694Z,43.13
2022-09-01T05:14:23.550Z,40.65
2022-09-01T05:16:53.967Z,41.38
2022-09-01T05:19:22.925Z,37.50
2022-09-01T05:21:51.088Z,38.30
2022-09-01T05:24:21.643Z,42.60
2022-09-01T05:26:50.728Z,38.88
2022-09-01T05:29:21.027Z,37.00
2022-09-01T05:31:52.646Z,43.97
2022-09-01T05:34:23.028Z,38.45
2022-09-01T05:36:51.715Z,35.03
2022-09-01T05:39:20.786Z,36.97
2022-09-01T05:41:49.304Z,42.78
2022-09-01T05:44:18.780Z,41.83
2022-09-01T05:46:47.523Z,37.95
2022-09-01T05:49:18.887Z,40.78
2022-09-01T05:51:50.543Z,36.08
2022-09-01T05:54:21.484Z,30.15
2022-09-01T05:56:50.363Z,35.28
2022-09-01T05:59:24.811Z,31.85
2022-09-01T06:01:54.520Z,27.50
2022-09-01T06:04:25.997Z,36.47
2022-09-01T06:07:06.446Z,30.08
2022-09-01T06:09:39.169Z,35.75
2022-09-01T06:12:08.458Z,29.63
2022-09-01T06:14:36.421Z,31.23
2022-09-01T06:17:04.320Z,32.63
2022-09-01T06:19:37.150Z,30.60
2022-09-01T06:22:05.741Z,33.40
2022-09-01T06:24:33.704Z,32.88
2022-09-01T06:27:01.672Z,27.05
2022-09-01T06:29:31.193Z,35.25
2022-09-01T06:31:59.808Z,29.67
2022-09-01T06:34:28.431Z,29.60
2022-09-01T06:36:57.695Z,32.90
2022-09-01T06:39:26.501Z,30.73
2022-09-01T06:41:54.774Z,29.48
2022-09-01T06:44:23.402Z,29.98
2022-09-01T06:46:52.118Z,26.20
2022-09-01T06:49:21.378Z,24.85
2022-09-01T06:51:52.689Z,24.70
2022-09-01T06:54:22.807Z,25.48
2022-09-01T06:56:51.912Z,25.45
2022-09-01T06:59:22.139Z,24.55
2022-09-01T07:01:52.631Z,19.73
2022-09-01T07:04:21.377Z,24.08
2022-09-01T07:06:59.690Z,21.85
2022-09-01T07:09:47.034Z,21.77
2022-09-01T07:12:28.130Z,19.15
2022-09-01T07:17:48.999Z,22.75
2022-09-01T07:20:25.243Z,19.13
2022-09-01T07:23:10.188Z,20.33
2022-09-01T07:26:02.199Z,20.27
2022-09-01T07:28:39.902Z,16.10
2022-09-01T07:39:51.915Z,10.73
2022-09-01T07:45:28.047Z,10.25
2022-09-01T07:47:56.842Z,10.57
2022-09-01T07:50:40.380Z,11.55
2022-09-01T07:53:11.112Z,11.00
2022-09-01T07:55:41.343Z,13.13
2022-09-01T07:58:13.487Z,14.23
2022-09-01T08:00:44.387Z,15.93
2022-09-01T08:03:12.476Z,12.20
2022-09-01T08:05:40.994Z,14.38
2022-09-01T08:08:28.768Z,13.68
2022-09-01T08:11:04.319Z,11.50
2022-09-01T08:13:40.706Z,12.38
2022-09-01T08:16:18.564Z,12.05
2022-09-01T08:18:48.919Z,10.93
2022-09-01T08:21:18.932Z,14.35
2022-09-01T08:23:47.838Z,10.45
2022-09-01T08:26:17.794Z,10.48
2022-09-01T08:28:54.963Z,9.57
2022-09-01T08:31:26.199Z,10.38
2022-09-01T08:33:58.227Z,8.30
2022-09-01T08:36:26.265Z,7.40
2022-09-01T08:38:54.413Z,8.32
2022-09-01T08:41:38.710Z,9.52
2022-09-01T08:44:19.329Z,9.20
2022-09-01T08:46:47.602Z,9.77
2022-09-01T08:49:28.143Z,10.60
2022-09-01T08:52:01.841Z,9.68
2022-09-01T08:54:38.003Z,13.80
2022-09-01T08:57:09.886Z,14.73
2022-09-01T08:59:39.271Z,10.63
2022-09-01T09:02:27.977Z,10.50
2022-09-01T09:07:41.766Z,10.32
2022-09-01T09:10:15.864Z,8.25
2022-09-01T09:13:00.540Z,8.45
2022-09-01T09:15:40.117Z,9.63
2022-09-01T09:18:38.778Z,9.68
2022-09-01T09:23:42.296Z,10.25
2022-09-01T09:26:10.195Z,12.40
2022-09-01T09:28:38.544Z,11.23
2022-09-01T09:31:37.516Z,14.13
2022-09-01T09:34:19.125Z,9.98
2022-09-01T09:36:53.878Z,9.85
2022-09-01T09:39:23.368Z,12.77
2022-09-01T09:42:09.380Z,10.43
2022-09-01T09:44:44.121Z,8.02
2022-09-01T09:47:44.390Z,12.65
2022-09-01T09:50:20.076Z,10.52
2022-09-01T09:52:48.953Z,8.10
2022-09-01T09:55:24.161Z,8.15
2022-09-01T09:57:56.221Z,4.97
2022-09-01T10:00:27.145Z,8.43
2022-09-01T10:03:04.617Z,6.10
2022-09-01T10:05:40.676Z,11.23
2022-09-01T10:08:11.606Z,6.88
2022-09-01T10:10:42.750Z,5.93
2022-09-01T10:13:14.953Z,5.90
2022-09-01T10:15:49.896Z,7.18
2022-09-01T10:18:29.046Z,7.10
2022-09-01T10:21:01.760Z,7.80
2022-09-01T10:23:32.337Z,7.70
2022-09-01T10:26:06.714Z,6.30
2022-09-01T10:28:50.000Z,8.02
2022-09-01T10:31:19.888Z,8.93
2022-09-01T10:33:50.095Z,5.53
2022-09-01T10:36:19.900Z,6.40
2022-09-01T10:38:53.749Z,6.63
2022-09-01T10:41:48.238Z,5.07
2022-09-01T10:44:21.781Z,5.50
2022-09-01T10:46:51.474Z,6.70
2022-09-01T10:49:46.483Z,7.13
2022-09-01T10:52:57.009Z,5.43
2022-09-01T10:55:30.003Z,4.82
2022-09-01T10:59:30.273Z,6.47
2022-09-01T11:01:46.929Z,4.82
2022-09-01T11:03:57.128Z,4.10
2022-09-01T11:07:13.348Z,7.78
2022-09-01T11:09:42.764Z,4.25
2022-09-01T11:12:32.208Z,4.30
2022-09-01T11:15:02.029Z,5.03
2022-09-01T11:17:32.338Z,4.55
2022-09-01T11:20:10.744Z,4.57
2022-09-01T11:22:43.267Z,5.57
2022-09-01T11:25:41.439Z,5.32
2022-09-01T11:28:37.978Z,6.15
2022-09-01T11:31:30.558Z,4.97
2022-09-01T11:34:15.614Z,5.35
2022-09-01T11:37:00.276Z,6.78
2022-09-01T11:39:37.179Z,4.10
2022-09-01T11:42:11.236Z,3.65
2022-09-01T11:44:45.768Z,4.00
2022-09-01T11:47:18.106Z,4.65
2022-09-01T11:49:52.987Z,5.43
2022-09-01T11:52:23.012Z,4.47
2022-09-01T11:54:52.711Z,3.83
2022-09-01T11:57:24.815Z,3.40
2022-09-01T11:59:53.617Z,5.65
2022-09-01T12:02:25.219Z,4.65
2022-09-01T12:04:55.382Z,4.07
2022-09-01T12:07:43.864Z,4.25
2022-09-01T12:10:21.109Z,3.95
2022-09-01T12:12:49.221Z,6.13
2022-09-01T12:15:22.478Z,3.33
2022-09-01T12:17:51.189Z,3.78
2022-09-01T12:20:29.617Z,5.20
2022-09-01T12:22:59.112Z,5.80
2022-09-01T12:25:31.254Z,3.80
2022-09-01T12:28:01.111Z,3.20
2022-09-01T12:30:29.658Z,6.03
2022-09-01T12:35:48.130Z,2.65
2022-09-01T12:38:24.803Z,5.80
2022-09-01T12:40:55.633Z,5.45
2022-09-01T12:43:37.089Z,4.00
2022-09-01T12:46:06.442Z,3.80
2022-09-01T12:48:36.251Z,3.22
2022-09-01T12:51:09.401Z,3.13
2022-09-01T12:53:37.571Z,4.90
2022-09-01T12:56:19.387Z,3.90
2022-09-01T12:58:54.370Z,3.25
2022-09-01T13:01:31.525Z,3.33
2022-09-01T13:04:28.162Z,2.50
2022-09-01T13:06:58.007Z,2.03
2022-09-01T13:09:25.923Z,4.50
2022-09-01T13:12:09.604Z,4.55
2022-09-01T13:14:37.506Z,1.40
2022-09-01T13:17:05.990Z,1.70
2022-09-01T13:19:42.137Z,2.33
2022-09-01T13:22:10.175Z,3.28
2022-09-01T13:24:39.677Z,3.00
2022-09-01T13:27:24.682Z,4.82
2022-09-01T13:29:53.360Z,2.45
2022-09-01T13:32:22.815Z,4.00
2022-09-01T13:34:53.541Z,3.17
2022-09-01T13:37:22.098Z,4.38
2022-09-01T13:39:50.594Z,3.75
2022-09-01T13:42:20.240Z,3.13
2022-09-01T13:44:52.358Z,3.85
2022-09-01T13:47:31.437Z,3.38
2022-09-01T13:50:09.712Z,3.85
2022-09-01T13:52:41.430Z,4.43
2022-09-01T13:55:12.931Z,4.32
2022-09-01T13:57:42.359Z,7.25
2022-09-01T14:00:16.484Z,7.47
2022-09-01T14:02:49.144Z,6.88
2022-09-01T14:05:18.821Z,3.78
2022-09-01T14:07:47.239Z,4.97
2022-09-01T14:10:15.287Z,7.75
2022-09-01T14:12:45.834Z,4.72
2022-09-01T14:15:17.820Z,5.32
2022-09-01T14:17:47.761Z,7.28
2022-09-01T14:20:18.405Z,7.68
2022-09-01T14:22:46.821Z,4.18
2022-09-01T14:25:15.717Z,5.78
2022-09-01T14:27:45.400Z,7.00
2022-09-01T14:30:16.527Z,3.63
2022-09-01T14:32:44.915Z,3.95
2022-09-01T14:35:13.737Z,7.53
2022-09-01T14:37:42.018Z,4.93
2022-09-01T14:40:16.929Z,4.72
2022-09-01T14:42:49.644Z,4.00
2022-09-01T14:45:19.461Z,3.00
2022-09-01T14:47:48.236Z,4.15
2022-09-01T14:50:21.625Z,6.30
2022-09-01T14:52:53.845Z,5.30
2022-09-01T14:55:22.637Z,4.90
2022-09-01T14:57:52.236Z,3.53
2022-09-01T15:00:20.676Z,3.85
2022-09-01T15:02:49.523Z,5.00
2022-09-01T15:05:17.534Z,4.32
2022-09-01T15:07:45.797Z,5.05
2022-09-01T15:10:25.364Z,4.65
2022-09-01T15:12:56.430Z,4.85
2022-09-01T15:15:25.642Z,4.35
2022-09-01T15:17:54.245Z,5.95
2022-09-01T15:20:40.603Z,3.95
2022-09-01T15:23:09.343Z,4.07
2022-09-01T15:25:37.256Z,8.60
2022-09-01T15:28:06.776Z,3.80
2022-09-01T15:30:35.398Z,4.50
2022-09-01T15:33:04.570Z,4.80
2022-09-01T15:35:33.398Z,8.07
2022-09-01T15:38:02.059Z,4.65
2022-09-01T15:40:30.283Z,7.18
2022-09-01T15:42:59.963Z,3.10
2022-09-01T15:45:30.031Z,4.38
2022-09-01T15:47:58.034Z,3.10
2022-09-01T15:50:27.948Z,2.38
2022-09-01T15:52:57.723Z,3.10
2022-09-01T15:55:30.459Z,3.25
2022-09-01T15:58:00.119Z,3.08
2022-09-01T16:00:30.397Z,5.10
2022-09-01T16:03:01.669Z,3.05
2022-09-01T16:05:30.060Z,3.83
2022-09-01T16:07:58.886Z,2.83
2022-09-01T16:10:27.537Z,3.58
2022-09-01T16:12:55.985Z,3.92
2022-09-01T16:15:26.189Z,3.78
2022-09-01T16:18:19.125Z,3.67
2022-09-01T16:20:55.425Z,2.67
2022-09-01T16:23:25.846Z,5.82
2022-09-01T16:25:54.637Z,2.95
2022-09-01T16:28:27.910Z,4.78
2022-09-01T16:31:05.967Z,2.90
2022-09-01T16:36:17.596Z,4.97
2022-09-01T16:38:50.501Z,8.57
2022-09-01T16:41:39.665Z,4.97
2022-09-01T16:44:18.767Z,4.25
2022-09-01T16:46:55.181Z,4.28
2022-09-01T16:49:31.357Z,4.05
2022-09-01T16:52:05.591Z,5.47
2022-09-01T16:54:50.627Z,3.42
2022-09-01T16:57:27.026Z,5.15
2022-09-01T16:59:59.492Z,3.45
2022-09-01T17:02:38.385Z,3.45
2022-09-01T17:05:20.614Z,3.65
2022-09-01T17:07:53.446Z,3.92
2022-09-01T17:10:34.460Z,5.22
2022-09-01T17:13:17.241Z,3.33
2022-09-01T17:15:51.653Z,4.90
2022-09-01T17:18:27.063Z,6.97
2022-09-01T17:21:02.269Z,7.50
2022-09-01T17:23:38.022Z,3.95
2022-09-01T17:26:13.551Z,5.68
2022-09-01T17:28:48.823Z,6.03
2022-09-01T17:31:32.564Z,4.63
2022-09-01T17:34:11.061Z,3.90
2022-09-01T17:36:50.850Z,4.32
2022-09-01T17:39:32.907Z,3.95
2022-09-01T17:42:07.329Z,5.93
2022-09-01T17:44:45.901Z,4.80
2022-09-01T17:47:20.974Z,4.88
2022-09-01T17:49:59.562Z,4.55
2022-09-01T17:52:45.226Z,4.30
2022-09-01T17:55:34.826Z,6.65
2022-09-01T17:58:08.218Z,5.97
2022-09-01T18:00:41.506Z,5.80
2022-09-01T18:03:26.045Z,8.15
2022-09-01T18:06:03.283Z,5.57
2022-09-01T18:08:40.239Z,4.83
2022-09-01T18:11:13.017Z,4.15
2022-09-01T18:13:54.069Z,5.57
2022-09-01T18:16:26.582Z,6.05
2022-09-01T18:18:56.791Z,5.07
2022-09-01T18:21:30.287Z,3.78
2022-09-01T18:24:13.962Z,4.32
2022-09-01T18:26:45.809Z,4.68
2022-09-01T18:29:13.755Z,4.35
2022-09-01T18:32:20.009Z,3.85
2022-09-01T18:35:02.548Z,5.30
2022-09-01T18:37:36.025Z,4.30
2022-09-01T18:40:14.036Z,4.20
2022-09-01T18:45:35.439Z,7.10
2022-09-01T18:48:14.811Z,5.90
2022-09-01T18:50:52.025Z,4.63
2022-09-01T18:53:31.782Z,6.70
2022-09-01T18:56:08.631Z,8.68
2022-09-01T18:58:53.559Z,4.57
2022-09-01T19:01:32.597Z,4.68
2022-09-01T19:04:10.346Z,5.10
2022-09-01T19:06:47.859Z,5.97
2022-09-01T19:09:21.435Z,5.87
2022-09-01T19:12:03.774Z,8.90
2022-09-01T19:14:40.160Z,4.35
2022-09-01T19:17:38.738Z,6.13
2022-09-01T19:20:11.635Z,5.27
2022-09-01T19:22:45.589Z,6.78
2022-09-01T19:25:36.679Z,6.15
2022-09-01T19:28:14.313Z,5.03
2022-09-01T19:30:48.159Z,5.43
2022-09-01T19:33:20.957Z,9.40
2022-09-01T19:35:52.213Z,5.50
2022-09-01T19:38:27.490Z,7.05
2022-09-01T19:41:04.634Z,5.30
2022-09-01T19:43:40.236Z,6.18
2022-09-01T19:46:18.493Z,10.13
2022-09-01T19:48:50.576Z,6.80
2022-09-01T19:51:23.665Z,6.70
2022-09-01T19:54:01.184Z,7.57
2022-09-01T19:56:34.694Z,7.93
2022-09-01T19:59:15.443Z,5.95
2022-09-01T20:01:48.712Z,7.60
2022-09-01T20:04:27.151Z,7.00
2022-09-01T20:07:00.217Z,6.43
2022-09-01T20:09:36.598Z,7.30
2022-09-01T20:12:14.397Z,8.70
2022-09-01T20:15:02.788Z,9.55
2022-09-01T20:17:38.090Z,5.95
2022-09-01T20:20:10.707Z,7.20
2022-09-01T20:22:45.356Z,7.65
2022-09-01T20:25:16.250Z,6.80
2022-09-01T20:27:52.061Z,9.10
2022-09-01T20:30:24.042Z,7.72
2022-09-01T20:33:04.720Z,7.82
2022-09-01T20:35:39.874Z,7.18
2022-09-01T20:38:35.503Z,10.18
2022-09-01T20:41:13.579Z,6.95
2022-09-01T20:43:44.788Z,9.20
2022-09-01T20:46:19.341Z,8.35
2022-09-01T20:48:47.986Z,7.13
2022-09-01T20:51:22.478Z,6.47
2022-09-01T20:54:11.099Z,7.80
2022-09-01T20:56:48.391Z,8.65
2022-09-01T20:59:23.499Z,9.13
2022-09-01T21:01:59.499Z,7.55
2022-09-01T21:04:42.964Z,7.38
2022-09-01T21:07:17.132Z,10.50
2022-09-01T21:09:55.436Z,10.55
2022-09-01T21:15:06.771Z,9.90
2022-09-01T21:17:43.657Z,9.38
2022-09-01T21:20:18.929Z,8.13
2022-09-01T21:22:46.818Z,10.32
2022-09-01T21:25:14.903Z,13.32
2022-09-01T21:27:51.178Z,6.75
2022-09-01T21:30:19.834Z,9.80
2022-09-01T21:32:49.452Z,10.73
2022-09-01T21:35:19.721Z,7.47
2022-09-01T21:37:47.609Z,9.88
2022-09-01T21:40:16.859Z,6.75
2022-09-01T21:42:50.250Z,6.90
2022-09-01T21:45:19.650Z,11.10
2022-09-01T21:47:50.426Z,6.43
2022-09-01T21:50:21.799Z,6.80
2022-09-01T21:52:50.122Z,6.32
2022-09-01T21:55:22.718Z,8.23
2022-09-01T21:57:51.732Z,6.53
2022-09-01T22:00:22.936Z,7.70
2022-09-01T22:02:52.598Z,6.20
2022-09-01T22:05:20.815Z,8.63
2022-09-01T22:07:49.087Z,7.80
2022-09-01T22:10:20.890Z,6.28
2022-09-01T22:12:50.752Z,6.57
2022-09-01T22:15:21.385Z,9.35
2022-09-01T22:17:50.636Z,9.43
2022-09-01T22:20:23.238Z,8.52
2022-09-01T22:22:52.017Z,7.15
2022-09-01T22:25:23.769Z,8.38
2022-09-01T22:27:52.016Z,8.10
2022-09-01T22:30:20.106Z,7.30
2022-09-01T22:32:48.079Z,6.82
2022-09-01T22:35:18.171Z,8.60
2022-09-01T22:37:48.011Z,7.53
2022-09-01T22:40:17.402Z,7.00
2022-09-01T22:42:45.991Z,11.27
2022-09-01T22:45:15.616Z,7.78
2022-09-01T22:47:43.870Z,10.75
2022-09-01T22:50:12.102Z,9.35
2022-09-01T22:52:40.060Z,9.38
2022-09-01T22:55:11.714Z,13.38
2022-09-01T22:57:39.652Z,6.40
2022-09-01T23:00:10.426Z,6.53
2022-09-01T23:02:39.047Z,10.93
2022-09-01T23:05:08.304Z,10.77
2022-09-01T23:07:39.784Z,7.30
2022-09-01T23:10:10.408Z,7.82
2022-09-01T23:12:38.454Z,7.97
2022-09-01T23:15:07.668Z,7.57
2022-09-01T23:17:36.669Z,8.93
2022-09-01T23:20:06.136Z,7.45
2022-09-01T23:22:34.220Z,7.30
2022-09-01T23:25:02.183Z,10.60
2022-09-01T23:27:32.021Z,7.05
2022-09-01T23:30:00.390Z,6.15
2022-09-01T23:32:28.541Z,6.53
2022-09-01T23:34:56.795Z,9.68
2022-09-01T23:37:24.703Z,6.05
2022-09-01T23:39:53.339Z,8.70
2022-09-01T23:42:21.602Z,5.72
2022-09-01T23:44:51.085Z,11.65
2022-09-01T23:47:19.570Z,5.50
2022-09-01T23:49:47.477Z,6.93
2022-09-01T23:52:16.126Z,11.13
2022-09-01T23:54:44.133Z,7.40
2022-09-01T23:57:12.702Z,7.15
2022-09-01T23:59:40.651Z,7.00
